sensor_id;sensor_type;location;lat;lon;timestamp;P1;durP1;ratioP1;P2;durP2;ratioP2
17496;SDS011;62150;43.582;1.456;2024-02-15T04:39:06;4.73;;;2.70;;
17496;SDS011;62150;43.582;1.456;2024-02-15T04:41:35;7.67;;;3.10;;
17496;SDS011;62150;43.582;1.456;2024-02-15T04:44:04;7.27;;;2.90;;
17496;SDS011;62150;43.582;1.456;2024-02-15T04:46:33;7.23;;;3.00;;
17496;SDS011;62150;43.582;1.456;2024-02-15T04:49:01;6.57;;;2.97;;
17496;SDS011;62150;43.582;1.456;2024-02-15T04:51:29;6.70;;;3.00;;
17496;SDS011;62150;43.582;1.456;2024-02-15T04:53:57;7.40;;;3.13;;
17496;SDS011;62150;43.582;1.456;2024-02-15T04:56:28;10.27;;;3.57;;
17496;SDS011;62150;43.582;1.456;2024-02-15T04:58:58;7.37;;;3.10;;
17496;SDS011;62150;43.582;1.456;2024-02-15T05:01:25;7.33;;;3.07;;
17496;SDS011;62150;43.582;1.456;2024-02-15T05:03:54;7.27;;;3.20;;
17496;SDS011;62150;43.582;1.456;2024-02-15T05:06:21;8.67;;;3.13;;
17496;SDS011;62150;43.582;1.456;2024-02-15T05:08:51;9.30;;;3.93;;
17496;SDS011;62150;43.582;1.456;2024-02-15T05:11:20;8.23;;;3.57;;
17496;SDS011;62150;43.582;1.456;2024-02-15T05:13:49;7.73;;;3.50;;
17496;SDS011;62150;43.582;1.456;2024-02-15T05:16:17;9.97;;;3.80;;
17496;SDS011;62150;43.582;1.456;2024-02-15T05:18:44;9.13;;;3.33;;
17496;SDS011;62150;43.582;1.456;2024-02-15T05:21:12;7.30;;;3.50;;
17496;SDS011;62150;43.582;1.456;2024-02-15T05:23:40;8.30;;;3.40;;
17496;SDS011;62150;43.582;1.456;2024-02-15T05:26:10;8.90;;;3.47;;
17496;SDS011;62150;43.582;1.456;2024-02-15T05:28:41;6.57;;;3.37;;
17496;SDS011;62150;43.582;1.456;2024-02-15T05:31:11;8.47;;;3.80;;
17496;SDS011;62150;43.582;1.456;2024-02-15T05:33:42;7.50;;;3.40;;
17496;SDS011;62150;43.582;1.456;2024-02-15T05:36:10;8.70;;;3.23;;
17496;SDS011;62150;43.582;1.456;2024-02-15T05:38:38;8.53;;;3.47;;
17496;SDS011;62150;43.582;1.456;2024-02-15T05:41:06;8.73;;;3.10;;
17496;SDS011;62150;43.582;1.456;2024-02-15T05:43:34;7.47;;;3.10;;
17496;SDS011;62150;43.582;1.456;2024-02-15T05:46:02;9.17;;;3.47;;
17496;SDS011;62150;43.582;1.456;2024-02-15T05:48:33;6.73;;;3.00;;
17496;SDS011;62150;43.582;1.456;2024-02-15T05:51:01;6.77;;;2.83;;
17496;SDS011;62150;43.582;1.456;2024-02-15T05:53:30;8.13;;;3.20;;
17496;SDS011;62150;43.582;1.456;2024-02-15T05:56:01;9.07;;;3.30;;
17496;SDS011;62150;43.582;1.456;2024-02-15T05:58:29;8.00;;;3.33;;
17496;SDS011;62150;43.582;1.456;2024-02-15T06:00:57;8.03;;;3.20;;
17496;SDS011;62150;43.582;1.456;2024-02-15T06:03:26;8.47;;;3.40;;
17496;SDS011;62150;43.582;1.456;2024-02-15T06:05:55;7.33;;;3.10;;
17496;SDS011;62150;43.582;1.456;2024-02-15T06:08:24;7.77;;;3.20;;
17496;SDS011;62150;43.582;1.456;2024-02-15T06:10:52;10.27;;;3.53;;
17496;SDS011;62150;43.582;1.456;2024-02-15T06:13:19;7.40;;;3.30;;
17496;SDS011;62150;43.582;1.456;2024-02-15T06:15:47;7.43;;;3.10;;
17496;SDS011;62150;43.582;1.456;2024-02-15T06:18:18;5.93;;;2.87;;
17496;SDS011;62150;43.582;1.456;2024-02-15T06:20:46;7.43;;;3.23;;
17496;SDS011;62150;43.582;1.456;2024-02-15T06:23:17;6.13;;;3.00;;
17496;SDS011;62150;43.582;1.456;2024-02-15T06:25:45;7.77;;;3.00;;
17496;SDS011;62150;43.582;1.456;2024-02-15T06:28:13;7.43;;;2.97;;
17496;SDS011;62150;43.582;1.456;2024-02-15T06:31:05;7.50;;;3.17;;
17496;SDS011;62150;43.582;1.456;2024-02-15T06:33:50;8.57;;;3.30;;
17496;SDS011;62150;43.582;1.456;2024-02-15T06:36:39;8.50;;;3.30;;
17496;SDS011;62150;43.582;1.456;2024-02-15T06:39:25;8.30;;;3.30;;
17496;SDS011;62150;43.582;1.456;2024-02-15T06:42:07;7.57;;;3.10;;
17496;SDS011;62150;43.582;1.456;2024-02-15T06:44:35;6.80;;;3.10;;
17496;SDS011;62150;43.582;1.456;2024-02-15T06:47:05;8.33;;;3.00;;
17496;SDS011;62150;43.582;1.456;2024-02-15T06:49:34;6.90;;;3.20;;
17496;SDS011;62150;43.582;1.456;2024-02-15T06:52:05;6.17;;;3.00;;
17496;SDS011;62150;43.582;1.456;2024-02-15T06:54:34;6.27;;;3.17;;
17496;SDS011;62150;43.582;1.456;2024-02-15T06:57:03;7.03;;;3.10;;
17496;SDS011;62150;43.582;1.456;2024-02-15T06:59:31;7.07;;;3.07;;
17496;SDS011;62150;43.582;1.456;2024-02-15T07:01:59;7.40;;;2.90;;
17496;SDS011;62150;43.582;1.456;2024-02-15T07:04:30;6.13;;;2.80;;
17496;SDS011;62150;43.582;1.456;2024-02-15T07:06:58;6.93;;;2.93;;
17496;SDS011;62150;43.582;1.456;2024-02-15T07:09:27;4.20;;;2.47;;
17496;SDS011;62150;43.582;1.456;2024-02-15T07:11:56;5.30;;;2.70;;
17496;SDS011;62150;43.582;1.456;2024-02-15T07:14:24;6.00;;;2.63;;
17496;SDS011;62150;43.582;1.456;2024-02-15T07:16:53;7.00;;;3.30;;
17496;SDS011;62150;43.582;1.456;2024-02-15T07:19:22;6.07;;;2.73;;
17496;SDS011;62150;43.582;1.456;2024-02-15T07:21:52;5.97;;;2.83;;
17496;SDS011;62150;43.582;1.456;2024-02-15T07:24:21;7.20;;;2.93;;
17496;SDS011;62150;43.582;1.456;2024-02-15T07:26:52;6.87;;;2.97;;
17496;SDS011;62150;43.582;1.456;2024-02-15T07:29:21;7.10;;;3.00;;
17496;SDS011;62150;43.582;1.456;2024-02-15T07:31:50;7.50;;;3.00;;
17496;SDS011;62150;43.582;1.456;2024-02-15T07:34:18;6.80;;;2.93;;
17496;SDS011;62150;43.582;1.456;2024-02-15T07:36:46;7.00;;;3.20;;
17496;SDS011;62150;43.582;1.456;2024-02-15T07:39:14;6.13;;;2.93;;
17496;SDS011;62150;43.582;1.456;2024-02-15T07:41:48;7.67;;;2.97;;
17496;SDS011;62150;43.582;1.456;2024-02-15T07:44:16;7.53;;;3.20;;
17496;SDS011;62150;43.582;1.456;2024-02-15T07:46:45;5.50;;;2.87;;
17496;SDS011;62150;43.582;1.456;2024-02-15T07:49:13;6.07;;;2.80;;
17496;SDS011;62150;43.582;1.456;2024-02-15T07:51:41;7.07;;;2.93;;
17496;SDS011;62150;43.582;1.456;2024-02-15T07:54:09;7.87;;;3.00;;
17496;SDS011;62150;43.582;1.456;2024-02-15T07:56:37;7.17;;;3.20;;
17496;SDS011;62150;43.582;1.456;2024-02-15T07:59:04;6.77;;;3.10;;
17496;SDS011;62150;43.582;1.456;2024-02-15T08:01:32;6.50;;;3.20;;
17496;SDS011;62150;43.582;1.456;2024-02-15T08:04:01;6.40;;;2.87;;
17496;SDS011;62150;43.582;1.456;2024-02-15T08:06:29;6.30;;;3.07;;
17496;SDS011;62150;43.582;1.456;2024-02-15T08:08:58;6.13;;;3.10;;
17496;SDS011;62150;43.582;1.456;2024-02-15T08:11:25;7.63;;;3.33;;
17496;SDS011;62150;43.582;1.456;2024-02-15T08:13:53;6.73;;;3.03;;
17496;SDS011;62150;43.582;1.456;2024-02-15T08:16:24;6.30;;;2.93;;
17496;SDS011;62150;43.582;1.456;2024-02-15T08:18:52;8.80;;;3.50;;
17496;SDS011;62150;43.582;1.456;2024-02-15T08:21:26;6.97;;;3.23;;
17496;SDS011;62150;43.582;1.456;2024-02-15T08:23:54;7.93;;;3.37;;
17496;SDS011;62150;43.582;1.456;2024-02-15T08:26:22;7.70;;;3.43;;
17496;SDS011;62150;43.582;1.456;2024-02-15T08:28:49;6.77;;;2.97;;
17496;SDS011;62150;43.582;1.456;2024-02-15T08:31:17;9.23;;;3.47;;
17496;SDS011;62150;43.582;1.456;2024-02-15T08:33:45;8.17;;;3.70;;
17496;SDS011;62150;43.582;1.456;2024-02-15T08:36:12;6.93;;;3.33;;
17496;SDS011;62150;43.582;1.456;2024-02-15T08:38:41;6.67;;;3.17;;
17496;SDS011;62150;43.582;1.456;2024-02-15T08:41:09;6.23;;;3.20;;
17496;SDS011;62150;43.582;1.456;2024-02-15T08:43:38;6.03;;;3.10;;
17496;SDS011;62150;43.582;1.456;2024-02-15T08:46:06;6.63;;;2.80;;
17496;SDS011;62150;43.582;1.456;2024-02-15T08:48:35;5.57;;;2.83;;
17496;SDS011;62150;43.582;1.456;2024-02-15T08:51:03;5.43;;;2.70;;
17496;SDS011;62150;43.582;1.456;2024-02-15T08:53:33;4.97;;;2.73;;
17496;SDS011;62150;43.582;1.456;2024-02-15T08:56:03;7.93;;;3.10;;
17496;SDS011;62150;43.582;1.456;2024-02-15T08:58:31;7.87;;;2.90;;
17496;SDS011;62150;43.582;1.456;2024-02-15T09:00:59;5.27;;;2.60;;
17496;SDS011;62150;43.582;1.456;2024-02-15T09:03:28;7.53;;;3.17;;
17496;SDS011;62150;43.582;1.456;2024-02-15T09:05:55;7.20;;;3.07;;
17496;SDS011;62150;43.582;1.456;2024-02-15T09:08:24;6.57;;;3.10;;
17496;SDS011;62150;43.582;1.456;2024-02-15T09:10:51;7.23;;;3.23;;
17496;SDS011;62150;43.582;1.456;2024-02-15T09:13:21;8.37;;;3.43;;
17496;SDS011;62150;43.582;1.456;2024-02-15T09:15:48;6.03;;;2.83;;
17496;SDS011;62150;43.582;1.456;2024-02-15T09:18:16;7.00;;;2.93;;
17496;SDS011;62150;43.582;1.456;2024-02-15T09:20:46;7.90;;;3.03;;
17496;SDS011;62150;43.582;1.456;2024-02-15T09:23:14;5.43;;;2.80;;
17496;SDS011;62150;43.582;1.456;2024-02-15T09:25:41;7.33;;;3.37;;
17496;SDS011;62150;43.582;1.456;2024-02-15T09:28:09;6.07;;;3.10;;
17496;SDS011;62150;43.582;1.456;2024-02-15T09:30:38;6.50;;;2.90;;
17496;SDS011;62150;43.582;1.456;2024-02-15T09:33:06;7.37;;;3.20;;
17496;SDS011;62150;43.582;1.456;2024-02-15T09:35:34;6.43;;;2.77;;
17496;SDS011;62150;43.582;1.456;2024-02-15T09:38:03;6.80;;;2.87;;
17496;SDS011;62150;43.582;1.456;2024-02-15T09:40:31;6.03;;;2.80;;
17496;SDS011;62150;43.582;1.456;2024-02-15T09:43:00;7.13;;;3.07;;
17496;SDS011;62150;43.582;1.456;2024-02-15T09:45:28;7.37;;;2.90;;
17496;SDS011;62150;43.582;1.456;2024-02-15T09:47:59;6.73;;;3.10;;
17496;SDS011;62150;43.582;1.456;2024-02-15T09:50:32;7.60;;;3.10;;
17496;SDS011;62150;43.582;1.456;2024-02-15T09:53:04;7.57;;;3.20;;
17496;SDS011;62150;43.582;1.456;2024-02-15T09:55:34;7.27;;;3.40;;
17496;SDS011;62150;43.582;1.456;2024-02-15T09:58:02;6.83;;;2.97;;
17496;SDS011;62150;43.582;1.456;2024-02-15T10:00:31;7.73;;;3.23;;
17496;SDS011;62150;43.582;1.456;2024-02-15T10:03:01;8.13;;;3.10;;
17496;SDS011;62150;43.582;1.456;2024-02-15T10:05:32;7.73;;;3.23;;
17496;SDS011;62150;43.582;1.456;2024-02-15T10:08:00;6.73;;;3.07;;
17496;SDS011;62150;43.582;1.456;2024-02-15T10:10:28;9.17;;;3.60;;
17496;SDS011;62150;43.582;1.456;2024-02-15T10:12:59;5.83;;;3.00;;
17496;SDS011;62150;43.582;1.456;2024-02-15T10:15:27;7.90;;;3.33;;
17496;SDS011;62150;43.582;1.456;2024-02-15T10:17:56;7.03;;;3.20;;
17496;SDS011;62150;43.582;1.456;2024-02-15T10:20:26;8.83;;;3.73;;
17496;SDS011;62150;43.582;1.456;2024-02-15T10:22:58;9.20;;;3.60;;
17496;SDS011;62150;43.582;1.456;2024-02-15T10:25:36;8.13;;;3.60;;
17496;SDS011;62150;43.582;1.456;2024-02-15T10:28:05;10.00;;;3.80;;
17496;SDS011;62150;43.582;1.456;2024-02-15T10:30:34;9.37;;;3.83;;
17496;SDS011;62150;43.582;1.456;2024-02-15T10:33:01;9.37;;;3.83;;
17496;SDS011;62150;43.582;1.456;2024-02-15T10:35:31;9.50;;;4.10;;
17496;SDS011;62150;43.582;1.456;2024-02-15T10:38:06;7.67;;;3.50;;
17496;SDS011;62150;43.582;1.456;2024-02-15T10:40:34;8.07;;;3.70;;
17496;SDS011;62150;43.582;1.456;2024-02-15T10:43:02;7.80;;;3.40;;
17496;SDS011;62150;43.582;1.456;2024-02-15T10:45:30;6.63;;;3.27;;
17496;SDS011;62150;43.582;1.456;2024-02-15T10:47:59;7.60;;;3.10;;
17496;SDS011;62150;43.582;1.456;2024-02-15T10:50:31;6.93;;;3.03;;
17496;SDS011;62150;43.582;1.456;2024-02-15T10:52:58;6.27;;;2.70;;
17496;SDS011;62150;43.582;1.456;2024-02-15T10:55:34;4.97;;;2.60;;
17496;SDS011;62150;43.582;1.456;2024-02-15T10:58:05;5.80;;;2.77;;
17496;SDS011;62150;43.582;1.456;2024-02-15T11:00:34;6.03;;;2.70;;
17496;SDS011;62150;43.582;1.456;2024-02-15T11:03:05;4.50;;;2.67;;
17496;SDS011;62150;43.582;1.456;2024-02-15T11:05:40;5.80;;;2.40;;
17496;SDS011;62150;43.582;1.456;2024-02-15T11:08:11;5.17;;;2.60;;
17496;SDS011;62150;43.582;1.456;2024-02-15T11:10:39;4.50;;;2.60;;
17496;SDS011;62150;43.582;1.456;2024-02-15T11:13:08;5.00;;;2.70;;
17496;SDS011;62150;43.582;1.456;2024-02-15T11:15:43;5.97;;;2.80;;
17496;SDS011;62150;43.582;1.456;2024-02-15T11:21:15;7.93;;;2.80;;
17496;SDS011;62150;43.582;1.456;2024-02-15T11:23:44;4.30;;;2.50;;
17496;SDS011;62150;43.582;1.456;2024-02-15T11:29:20;6.90;;;2.80;;
17496;SDS011;62150;43.582;1.456;2024-02-15T11:32:35;6.37;;;2.77;;
17496;SDS011;62150;43.582;1.456;2024-02-15T11:35:05;5.50;;;2.87;;
17496;SDS011;62150;43.582;1.456;2024-02-15T11:37:53;5.87;;;2.67;;
17496;SDS011;62150;43.582;1.456;2024-02-15T11:40:29;5.40;;;2.80;;
17496;SDS011;62150;43.582;1.456;2024-02-15T11:43:48;5.37;;;2.63;;
17496;SDS011;62150;43.582;1.456;2024-02-15T11:46:26;4.60;;;2.30;;
17496;SDS011;62150;43.582;1.456;2024-02-15T11:48:57;4.50;;;2.43;;
17496;SDS011;62150;43.582;1.456;2024-02-15T11:51:26;5.13;;;2.50;;
17496;SDS011;62150;43.582;1.456;2024-02-15T11:54:01;5.30;;;2.40;;
17496;SDS011;62150;43.582;1.456;2024-02-15T11:59:41;4.50;;;2.50;;
17496;SDS011;62150;43.582;1.456;2024-02-15T12:02:19;5.87;;;2.37;;
17496;SDS011;62150;43.582;1.456;2024-02-15T12:05:00;4.38;;;2.40;;
17496;SDS011;62150;43.582;1.456;2024-02-15T12:07:46;6.87;;;2.47;;
17496;SDS011;62150;43.582;1.456;2024-02-15T12:10:33;5.72;;;2.60;;
17496;SDS011;62150;43.582;1.456;2024-02-15T12:13:18;5.27;;;2.40;;
17496;SDS011;62150;43.582;1.456;2024-02-15T12:16:03;4.80;;;2.50;;
17496;SDS011;62150;43.582;1.456;2024-02-15T12:18:49;4.80;;;2.30;;
17496;SDS011;62150;43.582;1.456;2024-02-15T12:21:20;5.43;;;2.63;;
17496;SDS011;62150;43.582;1.456;2024-02-15T12:23:52;6.23;;;2.60;;
17496;SDS011;62150;43.582;1.456;2024-02-15T12:26:21;5.07;;;2.33;;
17496;SDS011;62150;43.582;1.456;2024-02-15T12:28:52;4.33;;;2.10;;
17496;SDS011;62150;43.582;1.456;2024-02-15T12:31:21;5.90;;;2.40;;
17496;SDS011;62150;43.582;1.456;2024-02-15T12:33:59;5.45;;;2.25;;
17496;SDS011;62150;43.582;1.456;2024-02-15T12:36:28;5.87;;;2.60;;
17496;SDS011;62150;43.582;1.456;2024-02-15T12:39:00;5.38;;;2.38;;
17496;SDS011;62150;43.582;1.456;2024-02-15T12:41:36;6.67;;;2.87;;
17496;SDS011;62150;43.582;1.456;2024-02-15T12:44:06;5.20;;;2.45;;
17496;SDS011;62150;43.582;1.456;2024-02-15T12:46:35;6.77;;;2.40;;
17496;SDS011;62150;43.582;1.456;2024-02-15T12:49:07;5.10;;;2.40;;
17496;SDS011;62150;43.582;1.456;2024-02-15T12:51:38;4.68;;;2.40;;
17496;SDS011;62150;43.582;1.456;2024-02-15T12:54:09;5.03;;;2.47;;
17496;SDS011;62150;43.582;1.456;2024-02-15T12:56:40;4.50;;;2.60;;
17496;SDS011;62150;43.582;1.456;2024-02-15T12:59:08;4.63;;;2.10;;
17496;SDS011;62150;43.582;1.456;2024-02-15T13:01:37;4.40;;;2.37;;
17496;SDS011;62150;43.582;1.456;2024-02-15T13:04:04;4.70;;;2.30;;
17496;SDS011;62150;43.582;1.456;2024-02-15T13:06:33;4.53;;;2.30;;
17496;SDS011;62150;43.582;1.456;2024-02-15T13:09:02;4.10;;;2.20;;
17496;SDS011;62150;43.582;1.456;2024-02-15T13:11:31;3.93;;;2.07;;
17496;SDS011;62150;43.582;1.456;2024-02-15T13:14:00;5.97;;;2.27;;
17496;SDS011;62150;43.582;1.456;2024-02-15T13:16:29;5.73;;;2.30;;
17496;SDS011;62150;43.582;1.456;2024-02-15T13:18:57;4.27;;;2.20;;
17496;SDS011;62150;43.582;1.456;2024-02-15T13:21:25;3.37;;;2.13;;
17496;SDS011;62150;43.582;1.456;2024-02-15T13:23:55;5.40;;;2.37;;
17496;SDS011;62150;43.582;1.456;2024-02-15T13:26:23;4.17;;;2.10;;
17496;SDS011;62150;43.582;1.456;2024-02-15T13:28:51;5.90;;;2.50;;
17496;SDS011;62150;43.582;1.456;2024-02-15T13:31:20;5.88;;;2.42;;
17496;SDS011;62150;43.582;1.456;2024-02-15T13:33:48;5.10;;;2.30;;
17496;SDS011;62150;43.582;1.456;2024-02-15T13:36:16;7.53;;;2.37;;
17496;SDS011;62150;43.582;1.456;2024-02-15T13:38:45;4.00;;;2.30;;
17496;SDS011;62150;43.582;1.456;2024-02-15T13:41:16;5.38;;;2.30;;
17496;SDS011;62150;43.582;1.456;2024-02-15T13:43:44;5.20;;;2.37;;
17496;SDS011;62150;43.582;1.456;2024-02-15T13:46:11;5.00;;;2.30;;
17496;SDS011;62150;43.582;1.456;2024-02-15T13:48:40;4.15;;;2.20;;
17496;SDS011;62150;43.582;1.456;2024-02-15T13:51:08;3.53;;;2.03;;
17496;SDS011;62150;43.582;1.456;2024-02-15T13:53:36;5.40;;;2.40;;
17496;SDS011;62150;43.582;1.456;2024-02-15T13:56:04;3.37;;;2.10;;
17496;SDS011;62150;43.582;1.456;2024-02-15T13:58:31;5.85;;;2.35;;
17496;SDS011;62150;43.582;1.456;2024-02-15T14:00:59;5.97;;;2.42;;
17496;SDS011;62150;43.582;1.456;2024-02-15T14:03:29;4.80;;;2.40;;
17496;SDS011;62150;43.582;1.456;2024-02-15T14:06:00;5.00;;;2.40;;
17496;SDS011;62150;43.582;1.456;2024-02-15T14:08:30;4.80;;;2.05;;
17496;SDS011;62150;43.582;1.456;2024-02-15T14:10:58;4.07;;;2.10;;
17496;SDS011;62150;43.582;1.456;2024-02-15T14:13:25;3.25;;;1.90;;
17496;SDS011;62150;43.582;1.456;2024-02-15T14:15:55;6.00;;;2.10;;
17496;SDS011;62150;43.582;1.456;2024-02-15T14:18:23;3.72;;;2.10;;
17496;SDS011;62150;43.582;1.456;2024-02-15T14:20:53;4.70;;;1.90;;
17496;SDS011;62150;43.582;1.456;2024-02-15T14:23:22;3.38;;;2.08;;
17496;SDS011;62150;43.582;1.456;2024-02-15T14:25:52;4.30;;;2.03;;
17496;SDS011;62150;43.582;1.456;2024-02-15T14:28:25;3.83;;;1.95;;
17496;SDS011;62150;43.582;1.456;2024-02-15T14:30:52;3.15;;;1.90;;
17496;SDS011;62150;43.582;1.456;2024-02-15T14:33:37;5.40;;;2.08;;
17496;SDS011;62150;43.582;1.456;2024-02-15T14:36:05;3.58;;;1.85;;
17496;SDS011;62150;43.582;1.456;2024-02-15T14:38:34;5.00;;;2.23;;
17496;SDS011;62150;43.582;1.456;2024-02-15T14:41:02;4.03;;;1.88;;
17496;SDS011;62150;43.582;1.456;2024-02-15T14:43:31;5.88;;;2.10;;
17496;SDS011;62150;43.582;1.456;2024-02-15T14:45:58;5.00;;;2.30;;
17496;SDS011;62150;43.582;1.456;2024-02-15T14:48:30;4.60;;;2.08;;
17496;SDS011;62150;43.582;1.456;2024-02-15T14:50:59;4.30;;;2.03;;
17496;SDS011;62150;43.582;1.456;2024-02-15T14:53:27;4.00;;;2.03;;
17496;SDS011;62150;43.582;1.456;2024-02-15T14:55:56;4.57;;;2.10;;
17496;SDS011;62150;43.582;1.456;2024-02-15T14:58:23;3.53;;;1.97;;
17496;SDS011;62150;43.582;1.456;2024-02-15T15:00:52;4.15;;;2.40;;
17496;SDS011;62150;43.582;1.456;2024-02-15T15:03:19;5.32;;;2.25;;
17496;SDS011;62150;43.582;1.456;2024-02-15T15:05:48;5.63;;;2.20;;
17496;SDS011;62150;43.582;1.456;2024-02-15T15:08:33;3.85;;;2.28;;
17496;SDS011;62150;43.582;1.456;2024-02-15T15:11:19;6.07;;;2.40;;
17496;SDS011;62150;43.582;1.456;2024-02-15T15:14:04;5.67;;;2.37;;
17496;SDS011;62150;43.582;1.456;2024-02-15T15:16:31;6.50;;;2.47;;
17496;SDS011;62150;43.582;1.456;2024-02-15T15:18:59;5.80;;;2.60;;
17496;SDS011;62150;43.582;1.456;2024-02-15T15:21:27;5.53;;;2.50;;
17496;SDS011;62150;43.582;1.456;2024-02-15T15:23:55;4.53;;;2.40;;
17496;SDS011;62150;43.582;1.456;2024-02-15T15:26:25;6.80;;;2.70;;
17496;SDS011;62150;43.582;1.456;2024-02-15T15:28:53;7.57;;;2.83;;
17496;SDS011;62150;43.582;1.456;2024-02-15T15:31:21;7.53;;;3.00;;
17496;SDS011;62150;43.582;1.456;2024-02-15T15:33:49;7.20;;;2.90;;
17496;SDS011;62150;43.582;1.456;2024-02-15T15:36:17;7.63;;;2.80;;
17496;SDS011;62150;43.582;1.456;2024-02-15T15:38:46;7.15;;;2.90;;
17496;SDS011;62150;43.582;1.456;2024-02-15T15:41:15;7.70;;;3.30;;
17496;SDS011;62150;43.582;1.456;2024-02-15T15:43:43;6.80;;;3.27;;
17496;SDS011;62150;43.582;1.456;2024-02-15T15:46:12;9.02;;;3.42;;
17496;SDS011;62150;43.582;1.456;2024-02-15T15:48:40;8.60;;;3.47;;
17496;SDS011;62150;43.582;1.456;2024-02-15T15:51:08;9.75;;;3.60;;
17496;SDS011;62150;43.582;1.456;2024-02-15T15:53:36;7.60;;;3.10;;
17496;SDS011;62150;43.582;1.456;2024-02-15T15:56:04;8.40;;;3.60;;
17496;SDS011;62150;43.582;1.456;2024-02-15T15:58:32;8.17;;;3.40;;
17496;SDS011;62150;43.582;1.456;2024-02-15T16:01:01;9.23;;;3.50;;
17496;SDS011;62150;43.582;1.456;2024-02-15T16:03:29;9.65;;;3.78;;
17496;SDS011;62150;43.582;1.456;2024-02-15T16:05:57;10.30;;;4.00;;
17496;SDS011;62150;43.582;1.456;2024-02-15T16:08:26;9.52;;;3.90;;
17496;SDS011;62150;43.582;1.456;2024-02-15T16:10:53;8.73;;;3.60;;
17496;SDS011;62150;43.582;1.456;2024-02-15T16:13:22;11.17;;;3.60;;
17496;SDS011;62150;43.582;1.456;2024-02-15T16:15:51;7.72;;;3.40;;
17496;SDS011;62150;43.582;1.456;2024-02-15T16:18:21;10.55;;;3.85;;
17496;SDS011;62150;43.582;1.456;2024-02-15T16:20:49;9.40;;;3.57;;
17496;SDS011;62150;43.582;1.456;2024-02-15T16:23:17;12.80;;;4.05;;
17496;SDS011;62150;43.582;1.456;2024-02-15T16:25:44;10.23;;;3.70;;
17496;SDS011;62150;43.582;1.456;2024-02-15T16:28:12;10.73;;;3.70;;
17496;SDS011;62150;43.582;1.456;2024-02-15T16:30:40;9.15;;;3.58;;
17496;SDS011;62150;43.582;1.456;2024-02-15T16:33:09;10.77;;;3.97;;
17496;SDS011;62150;43.582;1.456;2024-02-15T16:35:38;8.73;;;3.70;;
17496;SDS011;62150;43.582;1.456;2024-02-15T16:38:05;9.87;;;3.67;;
17496;SDS011;62150;43.582;1.456;2024-02-15T16:40:34;8.47;;;3.43;;
17496;SDS011;62150;43.582;1.456;2024-02-15T16:43:02;8.67;;;3.60;;
17496;SDS011;62150;43.582;1.456;2024-02-15T16:45:29;10.77;;;3.55;;
17496;SDS011;62150;43.582;1.456;2024-02-15T16:47:58;9.97;;;4.00;;
17496;SDS011;62150;43.582;1.456;2024-02-15T16:50:29;9.33;;;3.90;;
17496;SDS011;62150;43.582;1.456;2024-02-15T16:53:00;9.07;;;3.70;;
17496;SDS011;62150;43.582;1.456;2024-02-15T16:55:28;8.93;;;3.53;;
17496;SDS011;62150;43.582;1.456;2024-02-15T16:57:56;9.27;;;3.50;;
17496;SDS011;62150;43.582;1.456;2024-02-15T17:00:27;9.57;;;3.90;;
17496;SDS011;62150;43.582;1.456;2024-02-15T17:02:55;8.30;;;3.30;;
17496;SDS011;62150;43.582;1.456;2024-02-15T17:05:23;8.97;;;3.50;;
17496;SDS011;62150;43.582;1.456;2024-02-15T17:07:53;12.07;;;3.90;;
17496;SDS011;62150;43.582;1.456;2024-02-15T17:10:22;10.13;;;3.97;;
17496;SDS011;62150;43.582;1.456;2024-02-15T17:12:51;10.03;;;3.83;;
17496;SDS011;62150;43.582;1.456;2024-02-15T17:15:21;8.23;;;3.53;;
17496;SDS011;62150;43.582;1.456;2024-02-15T17:17:51;10.50;;;3.40;;
17496;SDS011;62150;43.582;1.456;2024-02-15T17:20:19;8.53;;;3.30;;
17496;SDS011;62150;43.582;1.456;2024-02-15T17:22:48;10.77;;;3.53;;
17496;SDS011;62150;43.582;1.456;2024-02-15T17:25:16;8.20;;;3.17;;
17496;SDS011;62150;43.582;1.456;2024-02-15T17:27:46;9.20;;;3.23;;
17496;SDS011;62150;43.582;1.456;2024-02-15T17:30:15;9.97;;;3.37;;
17496;SDS011;62150;43.582;1.456;2024-02-15T17:32:43;9.00;;;3.07;;
17496;SDS011;62150;43.582;1.456;2024-02-15T17:35:10;11.30;;;3.30;;
17496;SDS011;62150;43.582;1.456;2024-02-15T17:37:41;7.30;;;2.90;;
17496;SDS011;62150;43.582;1.456;2024-02-15T17:40:09;8.50;;;3.03;;
17496;SDS011;62150;43.582;1.456;2024-02-15T17:42:38;9.73;;;3.47;;
17496;SDS011;62150;43.582;1.456;2024-02-15T17:45:08;7.73;;;2.57;;
17496;SDS011;62150;43.582;1.456;2024-02-15T17:47:40;7.13;;;3.03;;
17496;SDS011;62150;43.582;1.456;2024-02-15T17:50:10;7.97;;;2.77;;
17496;SDS011;62150;43.582;1.456;2024-02-15T17:52:39;6.97;;;2.70;;
17496;SDS011;62150;43.582;1.456;2024-02-15T17:55:08;7.63;;;2.90;;
17496;SDS011;62150;43.582;1.456;2024-02-15T17:57:36;9.37;;;2.80;;
17496;SDS011;62150;43.582;1.456;2024-02-15T18:00:04;7.97;;;2.87;;
17496;SDS011;62150;43.582;1.456;2024-02-15T18:02:39;9.77;;;2.80;;
17496;SDS011;62150;43.582;1.456;2024-02-15T18:05:09;8.87;;;2.90;;
17496;SDS011;62150;43.582;1.456;2024-02-15T18:07:37;7.87;;;2.77;;
17496;SDS011;62150;43.582;1.456;2024-02-15T18:10:05;8.87;;;2.80;;
17496;SDS011;62150;43.582;1.456;2024-02-15T18:12:36;9.23;;;2.50;;
17496;SDS011;62150;43.582;1.456;2024-02-15T18:15:05;6.70;;;2.50;;
17496;SDS011;62150;43.582;1.456;2024-02-15T18:17:39;6.60;;;2.57;;
17496;SDS011;62150;43.582;1.456;2024-02-15T18:20:10;8.60;;;2.50;;
17496;SDS011;62150;43.582;1.456;2024-02-15T18:22:38;8.27;;;2.50;;
17496;SDS011;62150;43.582;1.456;2024-02-15T18:25:07;8.97;;;2.50;;
17496;SDS011;62150;43.582;1.456;2024-02-15T18:27:35;4.33;;;2.20;;
17496;SDS011;62150;43.582;1.456;2024-02-15T18:30:02;7.57;;;2.50;;
17496;SDS011;62150;43.582;1.456;2024-02-15T18:32:34;6.20;;;2.40;;
17496;SDS011;62150;43.582;1.456;2024-02-15T18:35:07;7.33;;;2.50;;
17496;SDS011;62150;43.582;1.456;2024-02-15T18:37:40;6.77;;;2.47;;
17496;SDS011;62150;43.582;1.456;2024-02-15T18:40:09;9.47;;;2.63;;
17496;SDS011;62150;43.582;1.456;2024-02-15T18:42:37;7.47;;;2.47;;
17496;SDS011;62150;43.582;1.456;2024-02-15T18:45:06;9.47;;;2.40;;
17496;SDS011;62150;43.582;1.456;2024-02-15T18:47:34;7.87;;;2.30;;
17496;SDS011;62150;43.582;1.456;2024-02-15T18:50:01;6.37;;;2.27;;
17496;SDS011;62150;43.582;1.456;2024-02-15T18:52:30;5.23;;;2.07;;
17496;SDS011;62150;43.582;1.456;2024-02-15T18:54:58;6.40;;;2.40;;
17496;SDS011;62150;43.582;1.456;2024-02-15T18:57:26;7.47;;;2.37;;
17496;SDS011;62150;43.582;1.456;2024-02-15T18:59:54;7.77;;;2.40;;
17496;SDS011;62150;43.582;1.456;2024-02-15T19:02:21;10.07;;;3.13;;
17496;SDS011;62150;43.582;1.456;2024-02-15T19:04:49;4.43;;;2.13;;
17496;SDS011;62150;43.582;1.456;2024-02-15T19:07:17;8.50;;;2.60;;
17496;SDS011;62150;43.582;1.456;2024-02-15T19:09:46;5.53;;;2.20;;
17496;SDS011;62150;43.582;1.456;2024-02-15T19:12:15;8.20;;;2.43;;
17496;SDS011;62150;43.582;1.456;2024-02-15T19:14:43;8.40;;;2.90;;
17496;SDS011;62150;43.582;1.456;2024-02-15T19:17:10;6.23;;;2.27;;
17496;SDS011;62150;43.582;1.456;2024-02-15T19:19:38;7.97;;;2.40;;
17496;SDS011;62150;43.582;1.456;2024-02-15T19:22:05;9.83;;;3.50;;
17496;SDS011;62150;43.582;1.456;2024-02-15T19:24:35;9.43;;;3.10;;
17496;SDS011;62150;43.582;1.456;2024-02-15T19:27:04;10.27;;;3.23;;
17496;SDS011;62150;43.582;1.456;2024-02-15T19:29:32;9.60;;;3.10;;
17496;SDS011;62150;43.582;1.456;2024-02-15T19:32:00;8.67;;;3.00;;
17496;SDS011;62150;43.582;1.456;2024-02-15T19:34:27;8.07;;;2.70;;
17496;SDS011;62150;43.582;1.456;2024-02-15T19:36:55;11.43;;;2.80;;
17496;SDS011;62150;43.582;1.456;2024-02-15T19:39:26;9.67;;;2.77;;
17496;SDS011;62150;43.582;1.456;2024-02-15T19:41:54;5.20;;;2.40;;
17496;SDS011;62150;43.582;1.456;2024-02-15T19:44:23;7.23;;;2.50;;
17496;SDS011;62150;43.582;1.456;2024-02-15T19:46:50;6.57;;;2.57;;
17496;SDS011;62150;43.582;1.456;2024-02-15T19:49:18;5.27;;;2.40;;
17496;SDS011;62150;43.582;1.456;2024-02-15T19:51:45;8.30;;;2.50;;